createdAt,value
2018-08-30T03:03:07.709Z,18.43
2018-08-30T03:27:16.935Z,18.35
2018-08-30T03:28:18.061Z,18.38
2018-08-30T03:31:33.982Z,18.28
2018-08-30T03:33:08.131Z,18.23
2018-08-30T03:34:07.636Z,18.26
2018-08-30T03:35:11.156Z,18.15
2018-08-30T03:36:07.742Z,18.29
2018-08-30T03:37:12.496Z,18.34
2018-08-30T03:38:09.648Z,18.25
2018-08-30T03:39:14.265Z,18.23
2018-08-30T03:42:00.298Z,18.33
2018-08-30T03:42:28.504Z,18.29
2018-08-30T03:43:28.515Z,18.28
2018-08-30T03:44:29.178Z,18.16
2018-08-30T03:45:29.123Z,18.23
2018-08-30T03:46:28.994Z,18.26
2018-08-30T03:47:29.366Z,18.23
2018-08-30T03:48:29.447Z,18.23
2018-08-30T03:49:29.529Z,18.28
2018-08-30T03:50:29.761Z,18.22
2018-08-30T03:51:29.941Z,18.33
2018-08-30T03:52:30.108Z,18.31
2018-08-30T03:53:30.831Z,18.20
2018-08-30T03:54:30.414Z,18.23
2018-08-30T03:55:31.563Z,18.26
2018-08-30T03:56:30.835Z,18.15
2018-08-30T03:57:31.171Z,18.07
2018-08-30T03:58:31.369Z,18.01
2018-08-30T03:59:31.504Z,18.01
2018-08-30T04:00:31.498Z,18.08
2018-08-30T04:01:32.187Z,18.03
2018-08-30T04:02:32.155Z,18.03
2018-08-30T04:03:33.303Z,18.03
2018-08-30T04:04:32.489Z,18.00
2018-08-30T04:05:32.686Z,17.98
2018-08-30T04:06:32.709Z,18.00
2018-08-30T04:07:33.178Z,17.95
2018-08-30T04:08:32.963Z,17.98
2018-08-30T04:09:33.811Z,18.05
2018-08-30T04:10:33.535Z,18.03
2018-08-30T04:11:34.000Z,17.98
2018-08-30T04:12:33.973Z,18.01
2018-08-30T04:13:34.778Z,18.13
2018-08-30T04:14:34.914Z,18.04
2018-08-30T04:15:34.314Z,18.08
2018-08-30T04:16:34.653Z,18.04
2018-08-30T04:17:34.801Z,18.05
2018-08-30T04:18:34.791Z,18.15
2018-08-30T04:19:35.043Z,18.13
2018-08-30T04:20:35.360Z,18.11
2018-08-30T04:21:35.509Z,18.07
2018-08-30T04:22:35.586Z,18.05
2018-08-30T04:23:35.702Z,18.03
2018-08-30T04:24:36.017Z,18.03
2018-08-30T04:25:36.232Z,17.89
2018-08-30T04:27:07.607Z,17.87
2018-08-30T04:31:34.404Z,17.86
2018-08-30T04:32:35.358Z,17.98
2018-08-30T04:33:28.904Z,17.98
2018-08-30T04:34:30.139Z,17.90
2018-08-30T04:37:43.744Z,17.92
2018-08-30T04:38:35.585Z,17.94
2018-08-30T04:39:32.681Z,17.86
2018-08-30T04:41:29.933Z,17.85
2018-08-30T04:42:29.885Z,17.90
2018-08-30T04:43:32.675Z,17.87
2018-08-30T04:44:28.471Z,17.85
2018-08-30T04:45:26.455Z,17.87
2018-08-30T04:46:26.682Z,17.90
2018-08-30T04:47:27.417Z,17.83
2018-08-30T04:48:27.181Z,17.83
2018-08-30T04:49:29.983Z,17.86
2018-08-30T04:50:27.458Z,17.82
2018-08-30T04:51:27.875Z,17.82
2018-08-30T04:52:27.542Z,17.76
2018-08-30T04:53:27.872Z,17.71
2018-08-30T04:54:28.174Z,17.72
2018-08-30T04:55:28.030Z,17.68
2018-08-30T04:56:28.388Z,17.80
2018-08-30T04:58:28.358Z,17.86
2018-08-30T04:59:29.136Z,17.71
2018-08-30T05:00:28.719Z,17.74
2018-08-30T05:01:30.193Z,17.74
2018-08-30T05:02:29.899Z,17.72
2018-08-30T05:03:29.637Z,17.68
2018-08-30T05:04:29.806Z,17.72
2018-08-30T05:05:30.045Z,17.60
2018-08-30T05:06:30.153Z,17.71
2018-08-30T05:07:30.641Z,17.78
2018-08-30T05:08:30.159Z,17.70
2018-08-30T05:09:30.515Z,17.67
2018-08-30T05:10:30.700Z,17.60
2018-08-30T05:11:32.714Z,17.56
2018-08-30T05:12:30.954Z,17.42
2018-08-30T05:13:31.086Z,17.49
2018-08-30T05:14:31.296Z,17.54
2018-08-30T05:15:31.766Z,17.46
2018-08-30T05:16:37.730Z,17.44
2018-08-30T05:17:32.086Z,17.46
2018-08-30T05:18:32.364Z,17.51
2018-08-30T05:21:32.986Z,17.39
2018-08-30T05:26:13.551Z,17.63
2018-08-30T05:27:13.290Z,17.60
2018-08-30T05:28:14.538Z,17.70
2018-08-30T05:29:15.297Z,17.57
2018-08-30T05:30:15.240Z,17.52
2018-08-30T05:31:14.827Z,17.68
2018-08-30T05:32:14.637Z,17.72
2018-08-30T05:33:14.465Z,17.63
2018-08-30T05:34:15.389Z,17.70
2018-08-30T05:35:15.973Z,17.72
2018-08-30T05:36:15.136Z,17.70
2018-08-30T05:37:16.127Z,17.72
2018-08-30T05:38:14.138Z,17.51
2018-08-30T05:39:12.643Z,17.56
2018-08-30T05:40:13.156Z,17.51
2018-08-30T05:41:12.775Z,17.60
2018-08-30T05:42:14.585Z,17.52
2018-08-30T05:43:14.423Z,17.44
2018-08-30T05:44:15.804Z,17.44
2018-08-30T05:46:13.940Z,17.49
2018-08-30T05:47:14.116Z,17.45
2018-08-30T05:48:14.226Z,17.41
2018-08-30T05:49:13.974Z,17.39
2018-08-30T05:50:14.184Z,17.44
2018-08-30T05:51:14.287Z,17.44
2018-08-30T05:52:14.724Z,17.45
2018-08-30T05:53:14.877Z,17.56
2018-08-30T05:54:15.268Z,17.49
2018-08-30T05:55:15.189Z,17.57
2018-08-30T05:56:15.402Z,17.52
2018-08-30T05:57:15.443Z,17.41
2018-08-30T05:58:15.847Z,17.51
2018-08-30T05:59:16.208Z,17.44
2018-08-30T06:00:19.147Z,17.46
2018-08-30T06:01:16.107Z,17.41
2018-08-30T06:02:16.656Z,17.51
2018-08-30T06:03:16.731Z,17.59
2018-08-30T06:04:29.458Z,17.60
2018-08-30T06:05:17.274Z,17.57
2018-08-30T06:06:17.325Z,17.67
2018-08-30T06:20:39.727Z,17.65
2018-08-30T06:21:40.041Z,17.70
2018-08-30T06:24:58.943Z,17.63
2018-08-30T06:26:09.039Z,17.52
2018-08-30T06:26:59.996Z,17.44
2018-08-30T06:28:01.456Z,17.42
2018-08-30T06:29:03.739Z,17.42
2018-08-30T06:42:16.813Z,17.57
2018-08-30T06:43:04.886Z,17.59
2018-08-30T06:45:06.040Z,17.67
2018-08-30T06:46:07.073Z,17.67
2018-08-30T06:47:06.669Z,17.65
2018-08-30T06:48:07.459Z,17.56
2018-08-30T06:49:06.525Z,17.60
2018-08-30T06:50:07.407Z,17.44
2018-08-30T06:51:06.364Z,17.46
2018-08-30T06:52:07.357Z,17.42
2018-08-30T06:54:52.018Z,17.41
2018-08-30T06:55:52.663Z,17.39
2018-08-30T06:56:52.287Z,17.39
2018-08-30T06:57:52.624Z,17.34
2018-08-30T06:58:54.405Z,17.39
2018-08-30T07:01:33.993Z,17.42
2018-08-30T07:02:33.717Z,17.41
2018-08-30T07:03:35.170Z,17.49
2018-08-30T07:04:41.695Z,17.51
2018-08-30T07:05:42.790Z,17.48
2018-08-30T07:06:36.181Z,17.57
2018-08-30T07:07:32.930Z,17.46
2018-08-30T07:08:32.982Z,17.57
2018-08-30T07:09:33.128Z,17.60
2018-08-30T07:10:33.240Z,17.52
2018-08-30T07:11:33.544Z,17.46
2018-08-30T07:12:33.596Z,17.56
2018-08-30T07:13:33.889Z,17.48
2018-08-30T07:14:33.924Z,17.56
2018-08-30T07:15:34.140Z,17.63
2018-08-30T07:16:34.348Z,17.60
2018-08-30T07:17:34.499Z,17.63
2018-08-30T07:18:34.728Z,17.76
2018-08-30T07:19:35.017Z,17.71
2018-08-30T07:20:35.267Z,17.71
2018-08-30T07:21:35.197Z,17.68
2018-08-30T07:22:35.389Z,17.79
2018-08-30T07:23:35.526Z,17.72
2018-08-30T07:24:35.778Z,17.90
2018-08-30T07:25:35.891Z,17.80
2018-08-30T07:26:36.094Z,17.70
2018-08-30T07:27:36.089Z,17.68
2018-08-30T07:28:36.438Z,17.68
2018-08-30T07:29:36.568Z,17.57
2018-08-30T07:30:36.761Z,17.70
2018-08-30T07:31:36.956Z,17.70
2018-08-30T07:32:37.043Z,17.72
2018-08-30T07:33:37.314Z,17.67
2018-08-30T07:34:37.501Z,17.74
2018-08-30T07:35:37.731Z,17.79
2018-08-30T07:36:37.878Z,17.85
2018-08-30T07:37:38.025Z,17.85
2018-08-30T07:38:38.111Z,17.86
2018-08-30T07:39:38.355Z,17.85
2018-08-30T07:40:38.484Z,17.89
2018-08-30T07:41:38.683Z,17.90
2018-08-30T07:42:38.802Z,17.85
2018-08-30T07:43:39.025Z,17.86
2018-08-30T07:44:39.230Z,17.90
2018-08-30T07:45:39.431Z,17.95
2018-08-30T07:46:39.480Z,17.92
2018-08-30T07:47:39.654Z,17.98
2018-08-30T07:48:39.826Z,18.07
2018-08-30T07:49:39.990Z,17.94
2018-08-30T07:50:40.174Z,17.89
2018-08-30T07:51:40.446Z,17.87
2018-08-30T07:52:40.404Z,17.87
2018-08-30T07:53:40.769Z,17.89
2018-08-30T07:54:40.791Z,17.89
2018-08-30T07:55:40.910Z,17.94
2018-08-30T07:56:41.235Z,17.87
2018-08-30T07:57:41.273Z,17.87
2018-08-30T07:58:41.442Z,17.85
2018-08-30T07:59:41.753Z,17.85
2018-08-30T08:00:41.739Z,17.89
2018-08-30T08:01:41.818Z,17.89
2018-08-30T08:02:42.094Z,17.92
2018-08-30T08:03:42.277Z,17.90
2018-08-30T08:04:42.379Z,17.95
2018-08-30T08:05:42.795Z,17.98
2018-08-30T08:06:42.866Z,17.92
2018-08-30T08:07:43.068Z,18.01
2018-08-30T08:08:43.253Z,18.03
2018-08-30T08:09:43.343Z,17.95
2018-08-30T08:10:43.714Z,18.13
2018-08-30T08:11:43.718Z,18.07
2018-08-30T08:12:43.891Z,18.00
2018-08-30T08:13:44.020Z,18.03
2018-08-30T08:14:44.187Z,18.00
2018-08-30T08:15:44.438Z,18.01
2018-08-30T08:16:44.601Z,18.03
2018-08-30T08:17:44.841Z,18.03
2018-08-30T08:18:45.046Z,18.08
2018-08-30T08:19:45.155Z,17.97
2018-08-30T08:20:45.296Z,18.10
2018-08-30T08:21:45.352Z,18.13
2018-08-30T08:22:45.680Z,18.13
2018-08-30T08:23:46.166Z,18.25
2018-08-30T08:24:48.457Z,18.25
2018-08-30T08:25:46.261Z,18.35
2018-08-30T08:26:46.409Z,18.52
2018-08-30T08:27:46.663Z,18.49
2018-08-30T08:28:46.626Z,18.49
2018-08-30T08:29:46.852Z,18.47
2018-08-30T08:30:47.124Z,18.50
2018-08-30T08:31:47.255Z,18.49
2018-08-30T08:32:47.535Z,18.56
2018-08-30T08:33:48.067Z,18.58
2018-08-30T08:34:47.969Z,18.65
2018-08-30T08:35:48.191Z,18.74
2018-08-30T08:36:48.353Z,18.88
2018-08-30T08:37:48.409Z,19.04
2018-08-30T08:38:48.646Z,19.04
2018-08-30T08:39:49.105Z,19.11
2018-08-30T08:40:49.037Z,19.33
2018-08-30T08:42:49.250Z,19.40
2018-08-30T08:43:49.325Z,19.47
2018-08-30T08:44:49.649Z,19.44
2018-08-30T08:45:49.910Z,19.40
2018-08-30T08:46:50.168Z,19.36
2018-08-30T08:47:50.213Z,19.40
2018-08-30T08:48:50.113Z,19.45
2018-08-30T08:49:50.247Z,19.34
2018-08-30T08:50:50.745Z,19.14
2018-08-30T08:51:50.674Z,19.11
2018-08-30T08:52:51.069Z,18.99
2018-08-30T08:53:51.001Z,19.08
2018-08-30T08:54:51.274Z,19.07
2018-08-30T08:55:51.474Z,18.99
2018-08-30T08:56:51.475Z,19.15
2018-08-30T08:57:51.843Z,19.24
2018-08-30T08:58:52.027Z,19.44
2018-08-30T08:59:52.257Z,19.45
2018-08-30T09:00:52.498Z,19.45
2018-08-30T09:01:52.593Z,19.51
2018-08-30T09:02:52.798Z,19.59
2018-08-30T09:03:52.965Z,19.74
2018-08-30T09:04:53.035Z,19.89
2018-08-30T09:05:53.346Z,19.88
2018-08-30T09:06:53.707Z,19.74
2018-08-30T09:09:23.608Z,19.63
2018-08-30T09:09:54.377Z,19.47
2018-08-30T09:12:00.694Z,19.55
2018-08-30T09:12:54.877Z,19.63
2018-08-30T09:13:55.118Z,19.54
2018-08-30T09:14:55.195Z,19.58
2018-08-30T09:15:55.830Z,19.56
2018-08-30T09:16:55.816Z,19.55
2018-08-30T09:17:55.784Z,19.62
2018-08-30T09:18:55.754Z,19.73
2018-08-30T09:19:56.133Z,19.86
2018-08-30T09:20:57.209Z,19.89
2018-08-30T09:21:56.814Z,20.00
2018-08-30T09:22:56.883Z,20.10
2018-08-30T09:23:57.002Z,20.16
2018-08-30T09:24:57.299Z,20.22
2018-08-30T09:25:57.457Z,20.22
2018-08-30T09:26:58.101Z,20.22
2018-08-30T09:27:57.828Z,20.22
2018-08-30T09:28:57.931Z,20.36
2018-08-30T09:29:58.023Z,20.41
2018-08-30T09:30:58.331Z,20.37
2018-08-30T09:31:58.453Z,20.52
2018-08-30T09:32:58.767Z,20.47
2018-08-30T09:33:58.705Z,20.60
2018-08-30T09:34:59.065Z,20.70
2018-08-30T09:35:59.081Z,20.78
2018-08-30T09:36:59.568Z,20.77
2018-08-30T09:37:59.245Z,20.95
2018-08-30T09:39:03.419Z,21.02
2018-08-30T09:44:45.124Z,21.18
2018-08-30T09:46:02.564Z,20.97
2018-08-30T09:47:53.559Z,20.97
2018-08-30T09:48:53.980Z,20.96
2018-08-30T09:49:54.122Z,20.87
2018-08-30T09:50:55.345Z,20.87
2018-08-30T09:56:25.169Z,20.81
2018-08-30T09:58:05.177Z,20.74
2018-08-30T09:58:25.138Z,20.74
2018-08-30T09:59:25.592Z,20.77
2018-08-30T10:01:28.692Z,20.72
2018-08-30T10:01:45.437Z,20.72
2018-08-30T10:07:08.692Z,21.17
2018-08-30T10:11:12.658Z,21.45
2018-08-30T10:12:12.119Z,21.30
2018-08-30T10:13:10.072Z,21.33
2018-08-30T10:14:07.309Z,21.36
2018-08-30T10:15:07.371Z,21.17
2018-08-30T10:16:07.486Z,21.07
2018-08-30T10:17:07.386Z,20.90
2018-08-30T10:20:09.041Z,20.29
2018-08-30T10:45:22.927Z,19.85
2018-08-30T10:46:21.111Z,19.82
2018-08-30T10:47:28.953Z,19.84
2018-08-30T10:52:25.634Z,19.73
2018-08-30T10:58:52.126Z,20.11
2018-08-30T11:05:02.186Z,20.43
2018-08-30T11:48:01.285Z,19.29
2018-08-30T12:15:02.783Z,20.67
2018-08-30T12:15:24.853Z,20.90
2018-08-30T12:16:25.151Z,21.17
2018-08-30T12:17:26.114Z,21.57
2018-08-30T12:19:25.561Z,22.29
2018-08-30T12:20:26.027Z,23.32
2018-08-30T12:22:32.946Z,25.03
2018-08-30T12:27:50.485Z,25.08
2018-08-30T12:27:51.927Z,25.26
2018-08-30T12:28:53.447Z,25.29
2018-08-30T12:30:54.812Z,26.22
2018-08-30T12:31:52.754Z,26.89
2018-08-30T12:32:53.273Z,27.37
2018-08-30T12:33:54.253Z,27.74
2018-08-30T12:36:21.493Z,27.10
2018-08-30T12:38:18.059Z,27.07
2018-08-30T12:43:51.942Z,28.04
2018-08-30T12:47:45.688Z,28.01
2018-08-30T12:48:51.486Z,28.35
2018-08-30T12:49:45.148Z,28.48
2018-08-30T12:53:46.191Z,28.08
2018-08-30T12:55:50.148Z,29.22
2018-08-30T12:57:46.716Z,29.50
2018-08-30T12:59:48.732Z,29.34
2018-08-30T13:00:48.037Z,29.68
2018-08-30T13:01:47.747Z,29.17
2018-08-30T13:02:53.701Z,28.08
2018-08-30T13:03:47.927Z,28.59
2018-08-30T13:04:47.976Z,29.05
2018-08-30T13:05:48.349Z,29.34
2018-08-30T13:06:48.235Z,29.78
2018-08-30T13:07:48.801Z,29.79
2018-08-30T13:08:48.781Z,30.00
2018-08-30T13:09:48.845Z,30.03
2018-08-30T13:10:49.222Z,30.21
2018-08-30T13:13:55.547Z,30.34
2018-08-30T13:14:50.082Z,30.32
2018-08-30T13:15:50.428Z,30.63
2018-08-30T13:16:50.426Z,31.03
2018-08-30T13:17:51.348Z,31.12
2018-08-30T13:18:50.907Z,31.20
2018-08-30T13:19:51.061Z,31.44
2018-08-30T13:20:51.373Z,31.56
2018-08-30T13:21:51.472Z,31.59
2018-08-30T13:22:51.451Z,31.46
2018-08-30T13:23:52.435Z,31.55
2018-08-30T13:24:52.820Z,31.58
2018-08-30T13:25:53.287Z,30.69
2018-08-30T13:26:52.341Z,29.84
2018-08-30T13:27:53.183Z,29.84
2018-08-30T13:28:57.033Z,28.63
2018-08-30T13:29:53.013Z,27.75
2018-08-30T13:30:53.018Z,26.96
2018-08-30T13:31:53.406Z,26.23
2018-08-30T13:32:53.515Z,25.62
2018-08-30T13:33:55.448Z,25.06
2018-08-30T13:36:30.033Z,24.18
2018-08-30T13:37:31.612Z,23.88
2018-08-30T13:38:31.131Z,23.78
2018-08-30T13:40:03.917Z,23.63
2018-08-30T13:40:31.397Z,23.54
2018-08-30T13:41:33.177Z,23.36
2018-08-30T13:42:32.611Z,23.43
2018-08-30T13:43:31.119Z,23.68
2018-08-30T13:44:30.086Z,23.93
2018-08-30T13:45:29.596Z,24.17
2018-08-30T13:46:29.771Z,24.93
2018-08-30T14:04:45.545Z,31.06
2018-08-30T14:07:18.520Z,30.87
2018-08-30T14:07:45.944Z,31.17
2018-08-30T14:08:46.475Z,31.24
2018-08-30T14:20:18.026Z,30.16
2018-08-30T14:23:37.515Z,29.98
2018-08-30T14:24:40.042Z,30.09
2018-08-30T14:25:37.921Z,30.10
2018-08-30T14:37:16.200Z,30.63
2018-08-30T14:37:58.573Z,30.72
2018-08-30T14:44:26.784Z,30.87
2018-08-30T14:45:50.819Z,30.84
2018-08-30T15:05:16.784Z,28.02
2018-08-30T15:06:01.559Z,27.36
2018-08-30T15:08:59.370Z,25.98
2018-08-30T15:09:59.531Z,25.72
2018-08-30T15:11:00.473Z,25.55
2018-08-30T15:11:58.102Z,25.46
2018-08-30T15:12:57.716Z,25.85
2018-08-30T15:13:57.914Z,26.31
2018-08-30T15:14:58.051Z,26.29
2018-08-30T15:15:58.181Z,25.91
2018-08-30T15:16:58.456Z,25.63
2018-08-30T15:17:58.665Z,25.53
2018-08-30T15:18:59.007Z,25.83
2018-08-30T15:19:59.369Z,26.05
2018-08-30T15:20:59.145Z,26.47
2018-08-30T15:21:59.406Z,26.78
2018-08-30T15:23:00.995Z,27.02
2018-08-30T15:27:00.702Z,27.95
2018-08-30T15:28:00.583Z,27.98
2018-08-30T15:29:01.542Z,27.75
2018-08-30T15:33:15.202Z,27.52
2018-08-30T15:36:04.235Z,27.58
2018-08-30T15:37:02.899Z,27.47
2018-08-30T15:38:02.339Z,27.35
2018-08-30T15:39:02.521Z,27.47
2018-08-30T15:40:02.652Z,27.48
2018-08-30T15:41:03.024Z,27.67
2018-08-30T15:42:03.181Z,27.77
2018-08-30T15:43:03.549Z,27.85
2018-08-30T15:44:03.552Z,27.90
2018-08-30T15:45:04.418Z,27.68
2018-08-30T15:47:05.009Z,28.00
2018-08-30T15:48:04.924Z,28.01
2018-08-30T15:49:05.181Z,27.85
2018-08-30T15:53:22.025Z,28.05
2018-08-30T15:54:12.893Z,27.82
2018-08-30T15:55:12.837Z,27.73
2018-08-30T15:56:13.419Z,27.54
2018-08-30T15:59:16.423Z,26.55
2018-08-30T16:00:20.005Z,26.43
2018-08-30T16:02:13.309Z,26.25
2018-08-30T16:03:11.604Z,26.06
2018-08-30T16:04:12.216Z,25.81
2018-08-30T16:05:11.811Z,25.70
2018-08-30T16:06:12.015Z,25.40
2018-08-30T16:07:12.191Z,25.06
2018-08-30T16:08:12.768Z,25.07
2018-08-30T16:09:12.985Z,24.85
2018-08-30T16:10:12.878Z,24.76
2018-08-30T16:11:13.977Z,24.54
2018-08-30T16:12:13.401Z,24.43
2018-08-30T16:13:43.791Z,24.16
2018-08-30T16:14:13.737Z,24.03
2018-08-30T16:15:13.641Z,23.84
2018-08-30T16:16:14.212Z,23.74
2018-08-30T16:17:17.529Z,23.69
2018-08-30T16:19:15.873Z,23.56
2018-08-30T16:23:31.843Z,23.17
2018-08-30T16:26:07.276Z,23.12
2018-08-30T17:12:18.193Z,21.91
2018-08-30T17:12:49.921Z,21.83
2018-08-30T17:13:49.735Z,21.88
2018-08-30T17:16:24.988Z,21.88
2018-08-30T17:17:24.106Z,21.67
2018-08-30T17:19:24.057Z,21.57
2018-08-30T17:20:26.121Z,21.57
2018-08-30T17:22:27.459Z,21.43
2018-08-30T17:24:25.927Z,21.40
2018-08-30T17:25:27.278Z,21.27
2018-08-30T17:26:28.880Z,21.24
2018-08-30T17:27:25.363Z,21.17
2018-08-30T17:28:23.683Z,21.25
2018-08-30T17:29:24.332Z,21.17
2018-08-30T17:30:24.171Z,21.02
2018-08-30T17:31:26.347Z,20.97
2018-08-30T17:32:25.193Z,20.90
2018-08-30T17:35:13.749Z,20.75
2018-08-30T17:37:13.176Z,20.74
2018-08-30T17:38:12.305Z,20.77
2018-08-30T17:59:02.527Z,20.10
2018-08-30T17:59:43.789Z,20.06
2018-08-30T18:00:42.902Z,19.99
2018-08-30T18:01:42.900Z,20.02
2018-08-30T18:02:43.774Z,19.85
2018-08-30T18:03:45.746Z,19.76
2018-08-30T18:04:44.822Z,19.76
2018-08-30T18:05:46.050Z,19.74
2018-08-30T18:06:55.721Z,19.74
2018-08-30T18:07:56.359Z,19.62
2018-08-30T18:08:47.943Z,19.62
2018-08-30T18:09:50.618Z,19.62
2018-08-30T18:10:44.750Z,19.56
2018-08-30T18:11:46.224Z,19.51
2018-08-30T18:12:51.048Z,19.47
2018-08-30T18:13:47.402Z,19.51
2018-08-30T18:14:45.331Z,19.47
2018-08-30T18:17:42.786Z,19.33
2018-08-30T18:18:41.747Z,19.27
2018-08-30T18:19:45.132Z,19.18
2018-08-30T18:24:42.352Z,19.11
2018-08-30T18:25:40.781Z,19.00
2018-08-30T18:26:41.985Z,19.02
2018-08-30T18:27:42.444Z,19.04
2018-08-30T18:28:42.308Z,18.99
2018-08-30T18:29:45.233Z,18.99
2018-08-30T18:30:41.619Z,18.98
2018-08-30T18:31:41.859Z,18.93
2018-08-30T18:32:41.833Z,18.83
2018-08-30T18:33:42.004Z,18.81
2018-08-30T18:34:43.194Z,18.74
2018-08-30T18:35:42.173Z,18.63
2018-08-30T18:36:42.461Z,18.68
2018-08-30T18:37:42.681Z,18.62
2018-08-30T18:38:42.865Z,18.59
2018-08-30T18:39:43.317Z,18.55
2018-08-30T18:40:43.102Z,18.53
2018-08-30T18:41:43.959Z,18.53
2018-08-30T18:42:43.500Z,18.49
2018-08-30T18:43:43.836Z,18.41
2018-08-30T18:44:43.829Z,18.40
2018-08-30T18:45:44.202Z,18.37
2018-08-30T18:46:45.040Z,18.41
2018-08-30T18:47:44.500Z,18.38
2018-08-30T18:48:44.798Z,18.34
2018-08-30T18:49:44.740Z,18.35
2018-08-30T18:50:45.098Z,18.29
2018-08-30T18:51:45.123Z,18.26
2018-08-30T18:52:45.412Z,18.35
2018-08-30T18:53:45.724Z,18.25
2018-08-30T18:54:45.799Z,18.31
2018-08-30T18:55:46.030Z,18.13
2018-08-30T18:56:46.061Z,18.05
2018-08-30T18:57:46.183Z,18.11
2018-08-30T18:58:46.343Z,18.04
2018-08-30T18:59:46.600Z,18.11
2018-08-30T19:00:46.731Z,18.07
2018-08-30T19:01:46.930Z,18.05
2018-08-30T19:02:47.691Z,18.03
2018-08-30T19:03:47.245Z,18.01
2018-08-30T19:04:47.541Z,17.97
2018-08-30T19:05:47.642Z,17.95
2018-08-30T19:06:47.806Z,17.85
2018-08-30T19:07:48.050Z,17.87
2018-08-30T19:08:48.175Z,17.67
2018-08-30T19:09:48.332Z,17.57
2018-08-30T19:10:48.708Z,17.54
2018-08-30T19:11:48.825Z,17.49
2018-08-30T19:12:48.907Z,17.45
2018-08-30T19:13:49.078Z,17.44
2018-08-30T19:14:49.165Z,17.39
2018-08-30T19:15:49.280Z,17.38
2018-08-30T19:16:49.967Z,17.36
2018-08-30T19:17:49.835Z,17.39
2018-08-30T19:18:49.983Z,17.30
2018-08-30T19:19:50.288Z,17.30
2018-08-30T19:20:50.313Z,17.26
2018-08-30T19:21:50.729Z,17.22
2018-08-30T19:22:50.607Z,17.20
2018-08-30T19:23:50.844Z,17.15
2018-08-30T19:24:51.158Z,17.14
2018-08-30T19:25:51.396Z,17.12
2018-08-30T19:26:51.402Z,17.14
2018-08-30T19:27:51.512Z,16.93
2018-08-30T19:28:51.748Z,16.96
2018-08-30T19:29:52.096Z,16.99
2018-08-30T19:30:52.109Z,16.97
2018-08-30T19:31:52.613Z,17.02
2018-08-30T19:32:52.422Z,16.93
2018-08-30T19:33:52.594Z,16.93
2018-08-30T19:34:53.090Z,16.91
2018-08-30T19:35:52.969Z,16.90
2018-08-30T19:36:53.452Z,16.75
2018-08-30T19:37:53.660Z,16.79
2018-08-30T19:38:53.353Z,16.87
2018-08-30T19:39:54.128Z,16.83
2018-08-30T19:40:53.893Z,16.87
2018-08-30T19:41:54.152Z,16.86
2018-08-30T19:42:54.194Z,16.81
2018-08-30T19:43:54.933Z,16.78
2018-08-30T19:44:54.920Z,16.75
2018-08-30T19:45:54.592Z,16.72
2018-08-30T19:46:54.705Z,16.71
2018-08-30T19:47:55.270Z,16.61
2018-08-30T19:48:59.375Z,16.61
2018-08-30T19:49:55.411Z,16.61
2018-08-30T19:50:56.092Z,16.51
2018-08-30T19:51:55.992Z,16.47
2018-08-30T19:52:56.190Z,16.49
2018-08-30T19:53:56.251Z,16.46
2018-08-30T19:54:57.972Z,16.38
2018-08-30T19:55:56.833Z,16.32
2018-08-30T19:56:56.959Z,16.29
2018-08-30T19:57:57.165Z,16.21
2018-08-30T19:58:57.623Z,16.10
2018-08-30T19:59:57.142Z,16.10
2018-08-30T20:00:57.531Z,16.04
2018-08-30T20:01:57.475Z,16.08
2018-08-30T20:02:57.649Z,16.05
2018-08-30T20:03:57.899Z,16.01
2018-08-30T20:04:58.363Z,15.98
2018-08-30T20:05:58.190Z,16.01
2018-08-30T20:06:58.498Z,16.01
2018-08-30T20:07:58.674Z,15.92
2018-08-30T20:08:58.914Z,16.04
2018-08-30T20:09:59.120Z,15.98
2018-08-30T20:10:59.508Z,15.97
2018-08-30T20:11:59.416Z,16.01
2018-08-30T20:12:59.450Z,16.02
2018-08-30T20:13:59.669Z,15.98
2018-08-30T20:14:59.843Z,16.01
2018-08-30T20:16:00.391Z,16.02
2018-08-30T20:17:00.327Z,16.02
2018-08-30T20:18:00.343Z,16.02
2018-08-30T20:19:00.729Z,16.01
2018-08-30T20:20:01.350Z,16.05
2018-08-30T20:21:00.810Z,16.01
2018-08-30T20:22:00.973Z,16.02
2018-08-30T20:23:01.217Z,16.02
2018-08-30T20:24:01.273Z,15.92
2018-08-30T20:25:01.416Z,16.08
2018-08-30T20:26:01.553Z,16.12
2018-08-30T20:27:02.428Z,16.02
2018-08-30T20:28:02.467Z,16.12
2018-08-30T20:29:02.783Z,16.10
2018-08-30T20:30:02.731Z,15.97
2018-08-30T20:31:02.649Z,16.08
2018-08-30T20:32:02.902Z,15.98
2018-08-30T20:33:03.436Z,15.95
2018-08-30T20:34:03.313Z,15.80
2018-08-30T20:35:03.453Z,15.83
2018-08-30T20:36:03.773Z,15.92
2018-08-30T20:37:03.940Z,15.91
2018-08-30T20:38:04.243Z,15.91
2018-08-30T20:39:04.181Z,15.88
2018-08-30T20:40:04.244Z,15.86
2018-08-30T20:41:04.314Z,15.88
2018-08-30T20:42:05.143Z,15.80
2018-08-30T20:43:05.078Z,15.86
2018-08-30T20:44:04.849Z,15.68
2018-08-30T20:45:04.896Z,15.79
2018-08-30T20:46:05.036Z,15.79
2018-08-30T20:47:05.382Z,15.80
2018-08-30T20:48:05.584Z,15.75
2018-08-30T20:49:05.609Z,15.77
2018-08-30T20:50:06.148Z,15.68
2018-08-30T20:51:05.967Z,15.68
2018-08-30T20:52:06.130Z,15.68
2018-08-30T20:53:06.207Z,15.76
2018-08-30T20:54:06.961Z,15.73
2018-08-30T20:55:06.796Z,15.64
2018-08-30T20:56:06.959Z,15.70
2018-08-30T20:57:06.862Z,15.64
2018-08-30T20:58:07.288Z,15.72
2018-08-30T20:59:07.425Z,15.59
2018-08-30T21:00:07.529Z,15.68
2018-08-30T21:01:07.938Z,15.70
2018-08-30T21:02:07.837Z,15.70
2018-08-30T21:03:08.148Z,15.55
2018-08-30T21:04:08.230Z,15.64
2018-08-30T21:05:08.488Z,15.52
2018-08-30T21:06:08.573Z,15.57
2018-08-30T21:07:08.863Z,15.49
2018-08-30T21:08:08.910Z,15.39
2018-08-30T21:09:09.755Z,15.29
2018-08-30T21:10:09.323Z,15.36
2018-08-30T21:11:09.445Z,15.24
2018-08-30T21:12:10.562Z,15.15
2018-08-30T21:13:09.871Z,15.17
2018-08-30T21:14:10.094Z,15.14
2018-08-30T21:15:10.147Z,15.10
2018-08-30T21:16:10.326Z,15.03
2018-08-30T21:17:10.615Z,15.10
2018-08-30T21:18:10.630Z,15.11
2018-08-30T21:19:11.101Z,15.10
2018-08-30T21:20:10.937Z,15.11
2018-08-30T21:21:11.319Z,15.07
2018-08-30T21:22:11.279Z,15.06
2018-08-30T21:23:11.407Z,15.02
2018-08-30T21:24:11.562Z,15.03
2018-08-30T21:25:11.704Z,14.97
2018-08-30T21:26:12.064Z,14.96
2018-08-30T21:27:12.132Z,15.02
2018-08-30T21:28:12.278Z,14.96
2018-08-30T21:29:12.408Z,14.85
2018-08-30T21:30:12.680Z,14.78
2018-08-30T21:31:12.764Z,14.78
2018-08-30T21:32:12.848Z,14.79
2018-08-30T21:33:13.046Z,14.72
2018-08-30T21:34:13.264Z,14.78
2018-08-30T21:35:13.363Z,14.59
2018-08-30T21:36:13.501Z,14.59
2018-08-30T21:37:13.753Z,14.63
2018-08-30T21:38:13.828Z,14.53
2018-08-30T21:39:14.040Z,14.51
2018-08-30T21:40:14.208Z,14.53
2018-08-30T21:41:14.372Z,14.51
2018-08-30T21:42:14.484Z,14.53
2018-08-30T21:43:14.683Z,14.53
2018-08-30T21:44:14.870Z,14.51
2018-08-30T21:45:15.065Z,14.50
2018-08-30T21:46:15.208Z,14.50
2018-08-30T21:47:15.485Z,14.48
2018-08-30T21:48:15.531Z,14.51
2018-08-30T21:49:15.816Z,14.44
